Impacts METAR Board
IDs:

KSTL - St Louis/Lambert Int, MO, US

Updated at: 1600 UTC 22 Sep 2019
Potential Impact None Slight Moderate High
Time 22/04Z 22/05Z 22/06Z 22/07Z 22/08Z 22/09Z 22/10Z 22/11Z 22/12Z 22/13Z 22/14Z 22/15Z 22/16Z
Temp79 78 77 76 75 74 74 74 74 75 77 79 80
Dewpt66 65 65 65 66 65 64 61 61 61 62 63 64
Altim30.05 30.05 30.05 30.04 30.03 30.02 30.01 30.00 30.00 29.99 29.99 29.98 29.98
VIS10 10 10 10 10 10 10 10 10 10 10 10 10
CIG140 150 250 250 250 80 -- -- 90 250 200 200 150
CoverOVCOVCOVCBKNBKNBKNSCTSCTBKNBKNBKNBKNOVC
FltCatVFRVFRVFRVFRVFRVFRVFRVFRVFRVFRVFRVFRVFR
WX--------------------------
WDir190190160180170180170190190180180190210
WSpd10 6 8 7 8 9 9 9 11 12 9 10 13
WGst-- -- -- -- -- -- -- -- 18 -- 16 21 23
Raw hourly METARs
KSTL 220351Z 19010KT 10SM SCT080 BKN140 OVC200 26/19 A3005 RMK AO2 SLP164 T02610189 $
KSTL 220451Z 19006KT 10SM SCT080 BKN150 OVC200 26/18 A3005 RMK AO2 SLP163 T02560183 $
KSTL 220551Z 16008KT 10SM FEW080 SCT160 OVC250 25/18 A3005 RMK AO2 SLP163 T02500183 10278 20250 402890233 58002 $
KSTL 220651Z 18007KT 10SM FEW160 BKN250 24/18 A3004 RMK AO2 SLP162 T02440183 $
KSTL 220751Z 17008KT 10SM SCT160 BKN250 24/19 A3003 RMK AO2 SLP158 T02390189 $
KSTL 220851Z 18009KT 10SM BKN080 23/18 A3002 RMK AO2 SLP152 T02330183 58009 $
KSTL 220951Z 17009KT 10SM FEW080 SCT250 23/18 A3001 RMK AO2 SLP149 T02330178 $
KSTL 221051Z COR 19009KT 10SM FEW080 SCT250 23/16 A3000 RMK AO2 SLP148 T02330161 $
KSTL 221151Z 19011G18KT 10SM BKN090 BKN250 23/16 A3000 RMK AO2 SLP147 70002 T02330161 10250 20233 56005 $
KSTL 221251Z 18012KT 10SM FEW090 SCT140 BKN250 24/16 A2999 RMK AO2 SLP146 T02390161 $
KSTL 221351Z 18009G16KT 10SM FEW120 BKN200 25/17 A2999 RMK AO2 SLP142 T02500167 $
KSTL 221451Z 19010G21KT 10SM FEW120 BKN200 26/17 A2998 RMK AO2 SLP140 T02610172 56006 $
KSTL 221551Z 21013G23KT 10SM FEW090 BKN150 OVC200 27/18 A2998 RMK AO2 PK WND 22026/1534 SLP141 T02670178 $



Page loaded:  16:09 UTC  |   09:09 AM Pacific  |   10:09 AM Mountain  |   11:09 AM Central  |   12:09 PM Eastern

 

ADVISORIES

FORECASTS

FORECASTS

OBSERVATIONS

USER TOOLS

ABOUT US